Keret — UAEH — position and weather

sailwx.info

Track history (hours):
 
Tides and Currents Weather Stations Pressure Air Temp Water Temp Dewpoint Dewpoint Depression Visibility Wind Speed Wind Dir Waves Ship Positions

Keret

Last reported at 2015-Jul-29 01:19 UTC. Time now 2015-Jul-30 14:14 UTC.
Position N 53°49' E 000°40'.

Length 82 m; draft 4.4 m.

Type: Cargo ship. MMSI: 273333000.

Date/timePositionNaut miles runAvg speedWind from/ knotsBaromVisibWave heightAir tempDewpointWater temp
2015-Jul-29 01:19N 53°49' E 000°40'416 8.2
2015-Jul-26 22:33N 57°47' E 010°47'4 4.3
2015-Jul-26 21:33N 57°43' E 010°52'8 7.6
2015-Jul-26 20:32N 57°36' E 010°47'94 5.9
2015-Jul-26 04:29N 56°15' E 012°15'7 7.1
2015-Jul-26 03:33N 56°11' E 012°24'10 9.8
2015-Jul-26 02:33N 56°04' E 012°38'10 9.8
2015-Jul-26 01:34N 55°55' E 012°45'10 9.8
2015-Jul-26 00:33N 55°46' E 012°42'1010.0
2015-Jul-25 23:33N 55°36' E 012°42'8 8.4
2015-Jul-25 22:33N 55°27' E 012°43'9 8.9
2015-Jul-25 21:34N 55°18' E 012°43'9 8.6
2015-Jul-25 20:32N 55°16' E 012°58'9 8.7
2015-Jul-25 19:33N 55°15' E 013°13'10 9.1
2015-Jul-25 18:29N 55°15' E 013°30'8 8.9
2015-Jul-25 17:33N 55°14' E 013°44'9 8.7
2015-Jul-25 16:33N 55°14' E 013°59'9 8.7
2015-Jul-25 15:33N 55°13' E 014°15'8 8.5
2015-Jul-25 14:33N 55°19' E 014°25'8 8.0
2015-Jul-25 13:33N 55°25' E 014°34'8 8.2
2015-Jul-25 12:33N 55°30' E 014°47'8 8.4
2015-Jul-25 11:33N 55°34' E 014°59'8 8.2
2015-Jul-25 10:33N 55°38' E 015°12'63 8.9
2015-Jul-25 03:33N 56°10' E 016°48'  
Track history (hours):
 
Tides and Currents Weather Stations Pressure Air Temp Water Temp Dewpoint Dewpoint Depression Visibility Wind Speed Wind Dir Waves Ship Positions

Keret

Last reported at 2015-Jul-29 01:19 UTC. Time now 2015-Jul-30 14:14 UTC.
Position N 53°49' E 000°40'.

Length 82 m; draft 4.4 m.

Type: Cargo ship. MMSI: 273333000.

Date/timePositionNaut miles runAvg speedWind from/ knotsBaromVisibWave heightAir tempDewpointWater temp
2015-Jul-29 01:19N 53°49' E 000°40'416 8.2
2015-Jul-26 22:33N 57°47' E 010°47'4 4.3
2015-Jul-26 21:33N 57°43' E 010°52'8 7.6
2015-Jul-26 20:32N 57°36' E 010°47'94 5.9
2015-Jul-26 04:29N 56°15' E 012°15'7 7.1
2015-Jul-26 03:33N 56°11' E 012°24'10 9.8
2015-Jul-26 02:33N 56°04' E 012°38'10 9.8
2015-Jul-26 01:34N 55°55' E 012°45'10 9.8
2015-Jul-26 00:33N 55°46' E 012°42'1010.0
2015-Jul-25 23:33N 55°36' E 012°42'8 8.4
2015-Jul-25 22:33N 55°27' E 012°43'9 8.9
2015-Jul-25 21:34N 55°18' E 012°43'9 8.6
2015-Jul-25 20:32N 55°16' E 012°58'9 8.7
2015-Jul-25 19:33N 55°15' E 013°13'10 9.1
2015-Jul-25 18:29N 55°15' E 013°30'8 8.9
2015-Jul-25 17:33N 55°14' E 013°44'9 8.7
2015-Jul-25 16:33N 55°14' E 013°59'9 8.7
2015-Jul-25 15:33N 55°13' E 014°15'8 8.5
2015-Jul-25 14:33N 55°19' E 014°25'8 8.0
2015-Jul-25 13:33N 55°25' E 014°34'8 8.2
2015-Jul-25 12:33N 55°30' E 014°47'8 8.4
2015-Jul-25 11:33N 55°34' E 014°59'8 8.2
2015-Jul-25 10:33N 55°38' E 015°12'63 8.9
2015-Jul-25 03:33N 56°10' E 016°48'  

Dump ship's entire track history